sensor_id;sensor_type;location;lat;lon;timestamp;pressure;altitude;pressure_sealevel;temperature;humidity
23363;BME280;11853;48.080;11.960;2023-04-15T00:01:24;93709.66;;;6.83;100.00
23363;BME280;11853;48.080;11.960;2023-04-15T00:03:51;93705.06;;;6.85;100.00
23363;BME280;11853;48.080;11.960;2023-04-15T00:06:18;93702.91;;;6.80;100.00
23363;BME280;11853;48.080;11.960;2023-04-15T00:08:47;93706.88;;;6.84;100.00
23363;BME280;11853;48.080;11.960;2023-04-15T00:11:13;93705.72;;;6.79;100.00
23363;BME280;11853;48.080;11.960;2023-04-15T00:13:39;93697.28;;;6.75;100.00
23363;BME280;11853;48.080;11.960;2023-04-15T00:16:06;93694.50;;;6.76;100.00
23363;BME280;11853;48.080;11.960;2023-04-15T00:18:32;93697.28;;;6.75;100.00
23363;BME280;11853;48.080;11.960;2023-04-15T00:20:58;93691.84;;;6.76;100.00
23363;BME280;11853;48.080;11.960;2023-04-15T00:23:24;93689.38;;;6.75;100.00
23363;BME280;11853;48.080;11.960;2023-04-15T00:25:50;93695.63;;;6.74;100.00
23363;BME280;11853;48.080;11.960;2023-04-15T00:28:16;93700.75;;;6.75;100.00
23363;BME280;11853;48.080;11.960;2023-04-15T00:30:42;93695.81;;;6.72;100.00
23363;BME280;11853;48.080;11.960;2023-04-15T00:33:08;93699.91;;;6.75;100.00
23363;BME280;11853;48.080;11.960;2023-04-15T00:35:34;93704.66;;;6.71;100.00
23363;BME280;11853;48.080;11.960;2023-04-15T00:38:02;93696.09;;;6.69;100.00
23363;BME280;11853;48.080;11.960;2023-04-15T00:40:27;93699.91;;;6.67;100.00
23363;BME280;11853;48.080;11.960;2023-04-15T00:42:53;93699.91;;;6.67;100.00
23363;BME280;11853;48.080;11.960;2023-04-15T00:45:19;93695.28;;;6.69;100.00
23363;BME280;11853;48.080;11.960;2023-04-15T00:47:44;93693.00;;;6.74;100.00
23363;BME280;11853;48.080;11.960;2023-04-15T00:50:11;93692.31;;;6.72;100.00
23363;BME280;11853;48.080;11.960;2023-04-15T00:52:37;93692.50;;;6.70;100.00
23363;BME280;11853;48.080;11.960;2023-04-15T00:55:03;93690.69;;;6.71;100.00
23363;BME280;11853;48.080;11.960;2023-04-15T00:57:29;93695.13;;;6.70;100.00
23363;BME280;11853;48.080;11.960;2023-04-15T00:59:55;93688.88;;;6.71;100.00
23363;BME280;11853;48.080;11.960;2023-04-15T01:02:21;93672.59;;;6.76;100.00
23363;BME280;11853;48.080;11.960;2023-04-15T01:04:47;93678.19;;;6.73;100.00
23363;BME280;11853;48.080;11.960;2023-04-15T01:07:13;93682.44;;;6.74;100.00
23363;BME280;11853;48.080;11.960;2023-04-15T01:09:39;93688.72;;;6.73;100.00
23363;BME280;11853;48.080;11.960;2023-04-15T01:12:06;93681.00;;;6.80;100.00
23363;BME280;11853;48.080;11.960;2023-04-15T01:14:33;93693.66;;;6.76;100.00
23363;BME280;11853;48.080;11.960;2023-04-15T01:16:58;93689.53;;;6.73;100.00
23363;BME280;11853;48.080;11.960;2023-04-15T01:19:25;93691.84;;;6.76;100.00
23363;BME280;11853;48.080;11.960;2023-04-15T01:21:51;93685.59;;;6.77;100.00
23363;BME280;11853;48.080;11.960;2023-04-15T01:24:18;93689.91;;;6.79;100.00
23363;BME280;11853;48.080;11.960;2023-04-15T01:26:52;93691.19;;;6.74;100.00
23363;BME280;11853;48.080;11.960;2023-04-15T01:29:18;93696.44;;;6.74;100.00
23363;BME280;11853;48.080;11.960;2023-04-15T01:31:51;93687.03;;;6.72;100.00
23363;BME280;11853;48.080;11.960;2023-04-15T01:34:17;93693.00;;;6.74;100.00
23363;BME280;11853;48.080;11.960;2023-04-15T01:36:43;93702.53;;;6.75;100.00
23363;BME280;11853;48.080;11.960;2023-04-15T01:39:08;93691.50;;;6.71;100.00
23363;BME280;11853;48.080;11.960;2023-04-15T01:41:34;93696.44;;;6.74;100.00
23363;BME280;11853;48.080;11.960;2023-04-15T01:43:59;93693.66;;;6.76;100.00
23363;BME280;11853;48.080;11.960;2023-04-15T01:46:26;93693.16;;;6.72;100.00
23363;BME280;11853;48.080;11.960;2023-04-15T01:48:51;93693.00;;;6.74;100.00
23363;BME280;11853;48.080;11.960;2023-04-15T01:51:17;93686.41;;;6.78;100.00
23363;BME280;11853;48.080;11.960;2023-04-15T01:53:43;93685.25;;;6.72;100.00
23363;BME280;11853;48.080;11.960;2023-04-15T01:56:08;93679.13;;;6.72;100.00
23363;BME280;11853;48.080;11.960;2023-04-15T01:58:34;93681.63;;;6.73;100.00
23363;BME280;11853;48.080;11.960;2023-04-15T02:01:00;93672.53;;;6.68;100.00
23363;BME280;11853;48.080;11.960;2023-04-15T02:03:27;93673.53;;;6.67;100.00
23363;BME280;11853;48.080;11.960;2023-04-15T02:05:53;93674.69;;;6.64;100.00
23363;BME280;11853;48.080;11.960;2023-04-15T02:08:19;93682.09;;;6.69;100.00
23363;BME280;11853;48.080;11.960;2023-04-15T02:10:45;93673.66;;;6.57;100.00
23363;BME280;11853;48.080;11.960;2023-04-15T02:13:10;93669.88;;;6.60;100.00
23363;BME280;11853;48.080;11.960;2023-04-15T02:15:36;93666.25;;;6.61;100.00
23363;BME280;11853;48.080;11.960;2023-04-15T02:18:02;93672.16;;;6.54;100.00
23363;BME280;11853;48.080;11.960;2023-04-15T02:20:28;93671.00;;;6.57;100.00
23363;BME280;11853;48.080;11.960;2023-04-15T02:22:55;93675.81;;;6.62;100.00
23363;BME280;11853;48.080;11.960;2023-04-15T02:25:21;93673.19;;;6.62;100.00
23363;BME280;11853;48.080;11.960;2023-04-15T02:27:47;93673.66;;;6.57;100.00
23363;BME280;11853;48.080;11.960;2023-04-15T02:30:12;93678.47;;;6.62;100.00
23363;BME280;11853;48.080;11.960;2023-04-15T02:32:40;93680.88;;;6.55;100.00
23363;BME280;11853;48.080;11.960;2023-04-15T02:35:08;93683.69;;;6.53;100.00
23363;BME280;11853;48.080;11.960;2023-04-15T02:37:36;93678.41;;;6.53;100.00
23363;BME280;11853;48.080;11.960;2023-04-15T02:40:07;93682.88;;;6.53;100.00
23363;BME280;11853;48.080;11.960;2023-04-15T02:42:34;93688.28;;;6.51;100.00
23363;BME280;11853;48.080;11.960;2023-04-15T02:45:00;93684.31;;;6.47;100.00
23363;BME280;11853;48.080;11.960;2023-04-15T02:47:25;93687.59;;;6.49;100.00
23363;BME280;11853;48.080;11.960;2023-04-15T02:49:51;93688.13;;;6.53;100.00
23363;BME280;11853;48.080;11.960;2023-04-15T02:52:17;93687.97;;;6.54;100.00
23363;BME280;11853;48.080;11.960;2023-04-15T02:54:42;93684.34;;;6.56;100.00
23363;BME280;11853;48.080;11.960;2023-04-15T02:57:08;93683.88;;;6.60;100.00
23363;BME280;11853;48.080;11.960;2023-04-15T02:59:36;93700.50;;;6.61;100.00
23363;BME280;11853;48.080;11.960;2023-04-15T03:02:01;93692.09;;;6.57;100.00
23363;BME280;11853;48.080;11.960;2023-04-15T03:04:27;93696.91;;;6.62;100.00
23363;BME280;11853;48.080;11.960;2023-04-15T03:06:54;93690.94;;;6.60;100.00
23363;BME280;11853;48.080;11.960;2023-04-15T03:09:21;93696.41;;;6.58;100.00
23363;BME280;11853;48.080;11.960;2023-04-15T03:11:46;93699.84;;;6.59;100.00
23363;BME280;11853;48.080;11.960;2023-04-15T03:14:12;93692.25;;;6.56;100.00
23363;BME280;11853;48.080;11.960;2023-04-15T03:16:38;93701.66;;;6.58;100.00
23363;BME280;11853;48.080;11.960;2023-04-15T03:19:03;93703.81;;;6.63;100.00
23363;BME280;11853;48.080;11.960;2023-04-15T03:21:29;93700.84;;;6.66;100.00
23363;BME280;11853;48.080;11.960;2023-04-15T03:23:55;93702.22;;;6.70;100.00
23363;BME280;11853;48.080;11.960;2023-04-15T03:26:28;93699.22;;;6.65;100.00
23363;BME280;11853;48.080;11.960;2023-04-15T03:28:54;93700.03;;;6.65;100.00
23363;BME280;11853;48.080;11.960;2023-04-15T03:31:20;93698.84;;;6.60;100.00
23363;BME280;11853;48.080;11.960;2023-04-15T03:33:45;93694.59;;;6.59;100.00
23363;BME280;11853;48.080;11.960;2023-04-15T03:36:11;93698.34;;;6.56;100.00
23363;BME280;11853;48.080;11.960;2023-04-15T03:38:37;93687.81;;;6.56;100.00
23363;BME280;11853;48.080;11.960;2023-04-15T03:41:02;93699.53;;;6.62;100.00
23363;BME280;11853;48.080;11.960;2023-04-15T03:43:28;93703.00;;;6.62;100.00
23363;BME280;11853;48.080;11.960;2023-04-15T03:45:54;93701.84;;;6.65;100.00
23363;BME280;11853;48.080;11.960;2023-04-15T03:48:19;93701.19;;;6.63;100.00
23363;BME280;11853;48.080;11.960;2023-04-15T03:50:45;93700.66;;;6.59;100.00
23363;BME280;11853;48.080;11.960;2023-04-15T03:53:10;93697.72;;;6.62;100.00
23363;BME280;11853;48.080;11.960;2023-04-15T03:55:36;93703.00;;;6.62;100.00
23363;BME280;11853;48.080;11.960;2023-04-15T03:58:02;93702.16;;;6.62;100.00
23363;BME280;11853;48.080;11.960;2023-04-15T04:00:27;93696.53;;;6.57;100.00
23363;BME280;11853;48.080;11.960;2023-04-15T04:02:53;93693.53;;;6.51;100.00
23363;BME280;11853;48.080;11.960;2023-04-15T04:05:18;93703.13;;;6.52;100.00
23363;BME280;11853;48.080;11.960;2023-04-15T04:07:44;93690.91;;;6.51;100.00
23363;BME280;11853;48.080;11.960;2023-04-15T04:10:10;93705.06;;;6.50;100.00
23363;BME280;11853;48.080;11.960;2023-04-15T04:12:36;93700.00;;;6.57;100.00
23363;BME280;11853;48.080;11.960;2023-04-15T04:15:01;93694.19;;;6.45;100.00
23363;BME280;11853;48.080;11.960;2023-04-15T04:17:27;93696.66;;;6.47;100.00
23363;BME280;11853;48.080;11.960;2023-04-15T04:19:53;93701.75;;;6.48;100.00
23363;BME280;11853;48.080;11.960;2023-04-15T04:22:21;93693.84;;;6.48;100.00
23363;BME280;11853;48.080;11.960;2023-04-15T04:24:48;93694.22;;;6.53;100.00
23363;BME280;11853;48.080;11.960;2023-04-15T04:27:13;93694.38;;;6.52;100.00
23363;BME280;11853;48.080;11.960;2023-04-15T04:29:39;93692.59;;;6.52;100.00
23363;BME280;11853;48.080;11.960;2023-04-15T04:32:05;93700.16;;;6.56;100.00
23363;BME280;11853;48.080;11.960;2023-04-15T04:34:31;93704.09;;;6.51;100.00
23363;BME280;11853;48.080;11.960;2023-04-15T04:36:56;93699.31;;;6.47;100.00
23363;BME280;11853;48.080;11.960;2023-04-15T04:39:22;93700.75;;;6.41;100.00
23363;BME280;11853;48.080;11.960;2023-04-15T04:41:48;93695.16;;;6.44;100.00
23363;BME280;11853;48.080;11.960;2023-04-15T04:44:14;93695.00;;;6.46;100.00
23363;BME280;11853;48.080;11.960;2023-04-15T04:46:40;93686.78;;;6.49;100.00
23363;BME280;11853;48.080;11.960;2023-04-15T04:49:06;93695.16;;;6.44;100.00
23363;BME280;11853;48.080;11.960;2023-04-15T04:51:31;93695.81;;;6.38;100.00
23363;BME280;11853;48.080;11.960;2023-04-15T04:53:57;93698.13;;;6.41;100.00
23363;BME280;11853;48.080;11.960;2023-04-15T04:56:23;93697.13;;;6.42;100.00
23363;BME280;11853;48.080;11.960;2023-04-15T04:58:48;93701.41;;;6.43;100.00
23363;BME280;11853;48.080;11.960;2023-04-15T05:01:14;93691.84;;;6.42;100.00
23363;BME280;11853;48.080;11.960;2023-04-15T05:03:39;93691.19;;;6.40;100.00
23363;BME280;11853;48.080;11.960;2023-04-15T05:06:05;93693.19;;;6.46;100.00
23363;BME280;11853;48.080;11.960;2023-04-15T05:08:33;93694.50;;;6.42;100.00
23363;BME280;11853;48.080;11.960;2023-04-15T05:10:58;93693.16;;;6.38;100.00
23363;BME280;11853;48.080;11.960;2023-04-15T05:13:24;93694.63;;;6.41;100.00
23363;BME280;11853;48.080;11.960;2023-04-15T05:15:50;93693.81;;;6.40;100.00
23363;BME280;11853;48.080;11.960;2023-04-15T05:18:16;93693.97;;;6.39;100.00
23363;BME280;11853;48.080;11.960;2023-04-15T05:20:41;93699.91;;;6.41;100.00
23363;BME280;11853;48.080;11.960;2023-04-15T05:23:07;93691.84;;;6.42;100.00
23363;BME280;11853;48.080;11.960;2023-04-15T05:25:33;93694.63;;;6.41;100.00
23363;BME280;11853;48.080;11.960;2023-04-15T05:27:58;93700.22;;;6.38;100.00
23363;BME280;11853;48.080;11.960;2023-04-15T05:30:24;93693.81;;;6.40;100.00
23363;BME280;11853;48.080;11.960;2023-04-15T05:32:50;93695.63;;;6.40;100.00
23363;BME280;11853;48.080;11.960;2023-04-15T05:35:16;93686.59;;;6.42;100.00
23363;BME280;11853;48.080;11.960;2023-04-15T05:37:42;93684.63;;;6.44;100.00
23363;BME280;11853;48.080;11.960;2023-04-15T05:40:08;93698.63;;;6.45;100.00
23363;BME280;11853;48.080;11.960;2023-04-15T05:42:35;93695.81;;;6.46;100.00
23363;BME280;11853;48.080;11.960;2023-04-15T05:45:01;93701.25;;;6.45;100.00
23363;BME280;11853;48.080;11.960;2023-04-15T05:47:29;93708.16;;;6.46;100.00
23363;BME280;11853;48.080;11.960;2023-04-15T05:49:55;93710.66;;;6.47;100.00
23363;BME280;11853;48.080;11.960;2023-04-15T05:52:23;93705.38;;;6.47;100.00
23363;BME280;11853;48.080;11.960;2023-04-15T05:54:48;93714.63;;;6.51;100.00
23363;BME280;11853;48.080;11.960;2023-04-15T05:57:15;93703.13;;;6.52;100.00
23363;BME280;11853;48.080;11.960;2023-04-15T05:59:40;93702.81;;;6.56;100.00
23363;BME280;11853;48.080;11.960;2023-04-15T06:02:06;93705.25;;;6.57;100.00
23363;BME280;11853;48.080;11.960;2023-04-15T06:04:33;93700.16;;;6.56;100.00
23363;BME280;11853;48.080;11.960;2023-04-15T06:06:58;93711.03;;;6.61;100.00
23363;BME280;11853;48.080;11.960;2023-04-15T06:09:24;93703.31;;;6.59;100.00
23363;BME280;11853;48.080;11.960;2023-04-15T06:11:50;93712.34;;;6.57;100.00
23363;BME280;11853;48.080;11.960;2023-04-15T06:14:16;93710.53;;;6.57;100.00
23363;BME280;11853;48.080;11.960;2023-04-15T06:16:42;93709.41;;;6.60;100.00
23363;BME280;11853;48.080;11.960;2023-04-15T06:19:07;93712.22;;;6.58;100.00
23363;BME280;11853;48.080;11.960;2023-04-15T06:21:33;93702.53;;;6.67;100.00
23363;BME280;11853;48.080;11.960;2023-04-15T06:23:58;93707.13;;;6.65;100.00
23363;BME280;11853;48.080;11.960;2023-04-15T06:26:28;93714.22;;;6.64;100.00
23363;BME280;11853;48.080;11.960;2023-04-15T06:28:53;93716.00;;;6.64;100.00
23363;BME280;11853;48.080;11.960;2023-04-15T06:31:20;93713.22;;;6.65;100.00
23363;BME280;11853;48.080;11.960;2023-04-15T06:33:45;93702.84;;;6.72;100.00
23363;BME280;11853;48.080;11.960;2023-04-15T06:36:11;93702.41;;;6.76;100.00
23363;BME280;11853;48.080;11.960;2023-04-15T06:38:36;93704.72;;;6.80;100.00
23363;BME280;11853;48.080;11.960;2023-04-15T06:41:03;93702.78;;;6.90;100.00
23363;BME280;11853;48.080;11.960;2023-04-15T06:43:29;93698.47;;;6.89;100.00
23363;BME280;11853;48.080;11.960;2023-04-15T06:45:55;93705.94;;;6.93;100.00
23363;BME280;11853;48.080;11.960;2023-04-15T06:48:21;93706.28;;;6.98;100.00
23363;BME280;11853;48.080;11.960;2023-04-15T06:50:48;93707.91;;;6.99;100.00
23363;BME280;11853;48.080;11.960;2023-04-15T06:53:14;93711.22;;;7.02;100.00
23363;BME280;11853;48.080;11.960;2023-04-15T06:55:40;93709.91;;;7.06;100.00
23363;BME280;11853;48.080;11.960;2023-04-15T06:58:06;93715.53;;;7.11;100.00
23363;BME280;11853;48.080;11.960;2023-04-15T07:00:32;93714.91;;;7.17;100.00
23363;BME280;11853;48.080;11.960;2023-04-15T07:03:03;93713.94;;;7.26;100.00
23363;BME280;11853;48.080;11.960;2023-04-15T07:05:29;93718.88;;;7.29;100.00
23363;BME280;11853;48.080;11.960;2023-04-15T07:07:56;93716.25;;;7.29;100.00
23363;BME280;11853;48.080;11.960;2023-04-15T07:10:22;93724.50;;;7.34;100.00
23363;BME280;11853;48.080;11.960;2023-04-15T07:12:48;93722.53;;;7.36;100.00
23363;BME280;11853;48.080;11.960;2023-04-15T07:15:15;93733.75;;;7.30;100.00
23363;BME280;11853;48.080;11.960;2023-04-15T07:17:41;93727.31;;;7.33;100.00
23363;BME280;11853;48.080;11.960;2023-04-15T07:20:10;93738.19;;;7.30;100.00
23363;BME280;11853;48.080;11.960;2023-04-15T07:22:37;93739.84;;;7.31;100.00
23363;BME280;11853;48.080;11.960;2023-04-15T07:25:08;93739.00;;;7.30;100.00
23363;BME280;11853;48.080;11.960;2023-04-15T07:27:34;93743.47;;;7.30;100.00
23363;BME280;11853;48.080;11.960;2023-04-15T07:30:00;93738.19;;;7.30;100.00
23363;BME280;11853;48.080;11.960;2023-04-15T07:32:25;93738.19;;;7.30;100.00
23363;BME280;11853;48.080;11.960;2023-04-15T07:34:51;93749.88;;;7.27;100.00
23363;BME280;11853;48.080;11.960;2023-04-15T07:37:17;93748.56;;;7.31;100.00
23363;BME280;11853;48.080;11.960;2023-04-15T07:39:43;93754.84;;;7.30;100.00
23363;BME280;11853;48.080;11.960;2023-04-15T07:42:10;93751.91;;;7.41;100.00
23363;BME280;11853;48.080;11.960;2023-04-15T07:44:35;93741.97;;;7.35;100.00
23363;BME280;11853;48.080;11.960;2023-04-15T07:47:01;93753.69;;;7.33;100.00
23363;BME280;11853;48.080;11.960;2023-04-15T07:49:27;93746.75;;;7.32;100.00
23363;BME280;11853;48.080;11.960;2023-04-15T07:51:53;93740.66;;;7.31;100.00
23363;BME280;11853;48.080;11.960;2023-04-15T07:54:19;93735.06;;;7.34;100.00
23363;BME280;11853;48.080;11.960;2023-04-15T07:56:45;93748.09;;;7.36;100.00
23363;BME280;11853;48.080;11.960;2023-04-15T07:59:10;93756.16;;;7.34;100.00
23363;BME280;11853;48.080;11.960;2023-04-15T08:01:36;93748.56;;;7.31;100.00
23363;BME280;11853;48.080;11.960;2023-04-15T08:04:02;93758.25;;;7.98;100.00
23363;BME280;11853;48.080;11.960;2023-04-15T08:06:27;93739.06;;;8.77;100.00
23363;BME280;11853;48.080;11.960;2023-04-15T08:08:53;93741.44;;;8.56;100.00
23363;BME280;11853;48.080;11.960;2023-04-15T08:11:20;93749.38;;;8.40;100.00
23363;BME280;11853;48.080;11.960;2023-04-15T08:13:46;93742.75;;;8.27;100.00
23363;BME280;11853;48.080;11.960;2023-04-15T08:16:24;93742.75;;;8.27;100.00
23363;BME280;11853;48.080;11.960;2023-04-15T08:18:51;93745.72;;;8.24;100.00
23363;BME280;11853;48.080;11.960;2023-04-15T08:21:18;93753.13;;;8.21;100.00
23363;BME280;11853;48.080;11.960;2023-04-15T08:23:46;93752.66;;;8.17;100.00
23363;BME280;11853;48.080;11.960;2023-04-15T08:26:12;93753.13;;;8.21;100.00
23363;BME280;11853;48.080;11.960;2023-04-15T08:28:40;93756.13;;;8.26;100.00
23363;BME280;11853;48.080;11.960;2023-04-15T08:31:06;93750.16;;;8.32;100.00
23363;BME280;11853;48.080;11.960;2023-04-15T08:33:32;93754.28;;;8.34;100.00
23363;BME280;11853;48.080;11.960;2023-04-15T08:35:57;93761.75;;;8.39;100.00
23363;BME280;11853;48.080;11.960;2023-04-15T08:38:23;93759.13;;;8.39;100.00
23363;BME280;11853;48.080;11.960;2023-04-15T08:40:49;93759.94;;;8.40;100.00
23363;BME280;11853;48.080;11.960;2023-04-15T08:43:21;93771.16;;;8.33;100.00
23363;BME280;11853;48.080;11.960;2023-04-15T08:45:53;93757.59;;;8.28;100.00
23363;BME280;11853;48.080;11.960;2023-04-15T08:48:19;93764.19;;;8.32;100.00
23363;BME280;11853;48.080;11.960;2023-04-15T08:50:46;93756.25;;;8.32;100.00
23363;BME280;11853;48.080;11.960;2023-04-15T08:53:13;93757.75;;;8.35;100.00
23363;BME280;11853;48.080;11.960;2023-04-15T08:55:42;93765.91;;;8.42;100.00
23363;BME280;11853;48.080;11.960;2023-04-15T08:58:13;93776.13;;;8.45;100.00
23363;BME280;11853;48.080;11.960;2023-04-15T09:00:39;93770.50;;;8.40;100.00
23363;BME280;11853;48.080;11.960;2023-04-15T09:03:05;93771.50;;;8.39;100.00
23363;BME280;11853;48.080;11.960;2023-04-15T09:05:32;93773.50;;;8.45;100.00
23363;BME280;11853;48.080;11.960;2023-04-15T09:07:59;93772.66;;;8.44;100.00
23363;BME280;11853;48.080;11.960;2023-04-15T09:10:24;93774.13;;;8.47;100.00
23363;BME280;11853;48.080;11.960;2023-04-15T09:12:50;93763.25;;;8.50;100.00
23363;BME280;11853;48.080;11.960;2023-04-15T09:15:16;93774.13;;;8.55;100.00
23363;BME280;11853;48.080;11.960;2023-04-15T09:17:45;93777.44;;;8.57;100.00
23363;BME280;11853;48.080;11.960;2023-04-15T09:20:15;93780.06;;;8.57;100.00
23363;BME280;11853;48.080;11.960;2023-04-15T09:22:42;93780.75;;;8.59;100.00
23363;BME280;11853;48.080;11.960;2023-04-15T09:27:47;93779.41;;;8.55;100.00
23363;BME280;11853;48.080;11.960;2023-04-15T09:30:13;93771.00;;;8.51;100.00
23363;BME280;11853;48.080;11.960;2023-04-15T09:32:58;93782.06;;;8.47;100.00
23363;BME280;11853;48.080;11.960;2023-04-15T09:35:25;93774.31;;;8.45;100.00
23363;BME280;11853;48.080;11.960;2023-04-15T09:37:52;93785.03;;;8.44;100.00
23363;BME280;11853;48.080;11.960;2023-04-15T09:40:40;93784.72;;;8.39;100.00
23363;BME280;11853;48.080;11.960;2023-04-15T09:43:08;93786.19;;;8.41;100.00
23363;BME280;11853;48.080;11.960;2023-04-15T09:45:34;93789.00;;;8.40;100.00
23363;BME280;11853;48.080;11.960;2023-04-15T09:48:20;93798.88;;;8.38;100.00
23363;BME280;11853;48.080;11.960;2023-04-15T09:50:50;93794.41;;;8.38;100.00
23363;BME280;11853;48.080;11.960;2023-04-15T09:53:21;93792.28;;;8.33;100.00
23363;BME280;11853;48.080;11.960;2023-04-15T09:58:26;93788.97;;;8.31;100.00
23363;BME280;11853;48.080;11.960;2023-04-15T10:00:53;93789.31;;;8.28;100.00
23363;BME280;11853;48.080;11.960;2023-04-15T10:03:22;93786.00;;;8.34;100.00
23363;BME280;11853;48.080;11.960;2023-04-15T10:05:49;93785.38;;;8.41;100.00
23363;BME280;11853;48.080;11.960;2023-04-15T10:08:17;93787.84;;;8.42;100.00
23363;BME280;11853;48.080;11.960;2023-04-15T10:10:45;93789.69;;;8.42;100.00
23363;BME280;11853;48.080;11.960;2023-04-15T10:13:22;93788.53;;;8.44;100.00
23363;BME280;11853;48.080;11.960;2023-04-15T10:15:59;93785.03;;;8.44;100.00
23363;BME280;11853;48.080;11.960;2023-04-15T10:18:27;93786.69;;;8.45;100.00
23363;BME280;11853;48.080;11.960;2023-04-15T10:20:54;93784.88;;;8.45;100.00
23363;BME280;11853;48.080;11.960;2023-04-15T10:23:21;93790.84;;;8.47;100.00
23363;BME280;11853;48.080;11.960;2023-04-15T10:25:48;93794.63;;;8.45;100.00
23363;BME280;11853;48.080;11.960;2023-04-15T10:28:15;93795.28;;;8.47;100.00
23363;BME280;11853;48.080;11.960;2023-04-15T10:30:42;93794.97;;;8.50;100.00
23363;BME280;11853;48.080;11.960;2023-04-15T10:33:08;93792.00;;;8.53;100.00
23363;BME280;11853;48.080;11.960;2023-04-15T10:35:36;93795.94;;;8.57;100.00
23363;BME280;11853;48.080;11.960;2023-04-15T10:38:02;93795.25;;;8.55;100.00
23363;BME280;11853;48.080;11.960;2023-04-15T10:40:49;93795.59;;;8.60;100.00
23363;BME280;11853;48.080;11.960;2023-04-15T10:43:24;93807.50;;;8.64;100.00
23363;BME280;11853;48.080;11.960;2023-04-15T10:45:52;93802.72;;;8.68;100.00
23363;BME280;11853;48.080;11.960;2023-04-15T10:48:18;93804.19;;;8.70;100.00
23363;BME280;11853;48.080;11.960;2023-04-15T10:50:59;93809.16;;;8.73;100.00
23363;BME280;11853;48.080;11.960;2023-04-15T10:53:28;93806.16;;;8.76;100.00
23363;BME280;11853;48.080;11.960;2023-04-15T10:55:58;93803.34;;;8.78;100.00
23363;BME280;11853;48.080;11.960;2023-04-15T10:58:24;93809.41;;;8.95;100.00
23363;BME280;11853;48.080;11.960;2023-04-15T11:00:51;93810.31;;;9.35;100.00
23363;BME280;11853;48.080;11.960;2023-04-15T11:03:35;93805.16;;;9.73;100.00
23363;BME280;11853;48.080;11.960;2023-04-15T11:06:03;93802.16;;;9.76;100.00
23363;BME280;11853;48.080;11.960;2023-04-15T11:11:19;93799.66;;;9.51;100.00
23363;BME280;11853;48.080;11.960;2023-04-15T11:13:51;93811.28;;;9.42;100.00
23363;BME280;11853;48.080;11.960;2023-04-15T11:16:17;93801.84;;;9.39;100.00
23363;BME280;11853;48.080;11.960;2023-04-15T11:18:53;93809.63;;;9.41;100.00
23363;BME280;11853;48.080;11.960;2023-04-15T11:21:23;93812.59;;;9.38;100.00
23363;BME280;11853;48.080;11.960;2023-04-15T11:23:49;93807.00;;;9.33;100.00
23363;BME280;11853;48.080;11.960;2023-04-15T11:26:15;93808.19;;;9.30;100.00
23363;BME280;11853;48.080;11.960;2023-04-15T11:28:43;93809.34;;;9.28;100.00
23363;BME280;11853;48.080;11.960;2023-04-15T11:31:12;93816.78;;;9.24;100.00
23363;BME280;11853;48.080;11.960;2023-04-15T11:33:45;93813.84;;;9.19;100.00
23363;BME280;11853;48.080;11.960;2023-04-15T11:36:11;93818.13;;;9.20;100.00
23363;BME280;11853;48.080;11.960;2023-04-15T11:38:36;93817.13;;;9.21;100.00
23363;BME280;11853;48.080;11.960;2023-04-15T11:41:06;93809.69;;;9.24;100.00
23363;BME280;11853;48.080;11.960;2023-04-15T11:43:32;93811.81;;;9.29;100.00
23363;BME280;11853;48.080;11.960;2023-04-15T11:46:01;93808.19;;;9.30;100.00
23363;BME280;11853;48.080;11.960;2023-04-15T11:48:29;93809.81;;;9.31;100.00
23363;BME280;11853;48.080;11.960;2023-04-15T11:50:59;93815.78;;;9.33;99.94
23363;BME280;11853;48.080;11.960;2023-04-15T11:56:06;93812.59;;;9.38;100.00
23363;BME280;11853;48.080;11.960;2023-04-15T11:58:34;93814.09;;;9.40;98.23
23363;BME280;11853;48.080;11.960;2023-04-15T12:01:01;93824.50;;;9.42;99.47
23363;BME280;11853;48.080;11.960;2023-04-15T12:03:46;93815.25;;;9.38;98.77
23363;BME280;11853;48.080;11.960;2023-04-15T12:06:20;93820.53;;;9.38;98.65
23363;BME280;11853;48.080;11.960;2023-04-15T12:13:54;93823.16;;;9.46;97.57
23363;BME280;11853;48.080;11.960;2023-04-15T12:16:20;93831.78;;;9.48;98.15
23363;BME280;11853;48.080;11.960;2023-04-15T12:18:54;93835.25;;;9.48;99.06
23363;BME280;11853;48.080;11.960;2023-04-15T12:21:22;93834.06;;;9.51;98.19
23363;BME280;11853;48.080;11.960;2023-04-15T12:23:49;93830.94;;;9.47;97.46
23363;BME280;11853;48.080;11.960;2023-04-15T12:26:16;93832.94;;;9.45;97.20
23363;BME280;11853;48.080;11.960;2023-04-15T12:28:42;93834.44;;;9.40;97.50
23363;BME280;11853;48.080;11.960;2023-04-15T12:31:09;93841.38;;;9.41;98.43
23363;BME280;11853;48.080;11.960;2023-04-15T12:33:35;93839.38;;;9.43;99.55
23363;BME280;11853;48.080;11.960;2023-04-15T12:36:00;93848.69;;;9.39;98.18
23363;BME280;11853;48.080;11.960;2023-04-15T12:38:26;93849.50;;;9.39;98.66
23363;BME280;11853;48.080;11.960;2023-04-15T12:40:52;93853.63;;;9.42;99.12
23363;BME280;11853;48.080;11.960;2023-04-15T12:43:18;93856.63;;;9.39;99.48
23363;BME280;11853;48.080;11.960;2023-04-15T12:45:44;93858.28;;;9.32;99.25
23363;BME280;11853;48.080;11.960;2023-04-15T12:48:09;93859.44;;;9.29;100.00
23363;BME280;11853;48.080;11.960;2023-04-15T12:50:35;93863.91;;;9.29;100.00
23363;BME280;11853;48.080;11.960;2023-04-15T12:53:01;93863.09;;;9.28;100.00
23363;BME280;11853;48.080;11.960;2023-04-15T12:55:28;93863.09;;;9.28;100.00
23363;BME280;11853;48.080;11.960;2023-04-15T13:13:05;93874.16;;;9.32;100.00
23363;BME280;11853;48.080;11.960;2023-04-15T13:15:31;93878.63;;;9.31;100.00
23363;BME280;11853;48.080;11.960;2023-04-15T13:17:56;93884.44;;;9.27;98.07
23363;BME280;11853;48.080;11.960;2023-04-15T13:20:22;93877.66;;;9.24;98.36